createdAt,value
2023-09-30T00:01:28.289Z,100076.92
2023-09-30T00:03:56.105Z,100079.45
2023-09-30T00:06:23.900Z,100078.16
2023-09-30T00:08:51.362Z,100076.52
2023-09-30T00:11:19.742Z,100076.80
2023-09-30T00:13:47.616Z,100075.30
2023-09-30T00:16:15.082Z,100073.11
2023-09-30T00:18:42.689Z,100076.08
2023-09-30T00:21:10.338Z,100070.20
2023-09-30T00:23:37.783Z,100069.98
2023-09-30T00:26:06.420Z,100069.17
2023-09-30T00:28:33.837Z,100066.77
2023-09-30T00:31:01.390Z,100064.90
2023-09-30T00:33:28.976Z,100062.56
2023-09-30T00:35:56.493Z,100062.34
2023-09-30T00:38:25.137Z,100064.22
2023-09-30T00:40:52.539Z,100059.00
2023-09-30T00:43:20.924Z,100058.34
2023-09-30T00:45:50.485Z,100057.88
2023-09-30T00:48:18.103Z,100057.05
2023-09-30T00:50:45.768Z,100055.70
2023-09-30T00:53:13.268Z,100059.15
2023-09-30T00:55:40.641Z,100054.80
2023-09-30T00:58:08.087Z,100056.12
2023-09-30T01:00:35.682Z,100054.60
2023-09-30T01:03:05.461Z,100053.07
2023-09-30T01:05:33.164Z,100048.19
2023-09-30T01:08:03.128Z,100050.48
2023-09-30T01:10:30.529Z,100047.66
2023-09-30T01:12:57.986Z,100047.85
2023-09-30T01:15:25.725Z,100046.62
2023-09-30T01:17:53.317Z,100046.81
2023-09-30T01:20:24.716Z,100043.85
2023-09-30T01:22:53.071Z,100043.89
2023-09-30T01:25:20.581Z,100043.45
2023-09-30T01:27:49.041Z,100041.36
2023-09-30T01:30:16.853Z,100043.02
2023-09-30T01:32:44.326Z,100039.67
2023-09-30T01:35:11.786Z,100037.41
2023-09-30T01:37:40.232Z,100035.31
2023-09-30T01:40:09.624Z,100036.17
2023-09-30T01:42:37.512Z,100035.34
2023-09-30T01:45:05.697Z,100037.00
2023-09-30T01:47:33.183Z,100038.42
2023-09-30T01:50:00.672Z,100029.81
2023-09-30T01:52:28.669Z,100033.76
2023-09-30T01:54:56.047Z,100036.27
2023-09-30T01:57:23.540Z,100035.41
2023-09-30T01:59:51.011Z,100037.25
2023-09-30T02:02:18.959Z,100032.67
2023-09-30T02:04:46.429Z,100034.13
2023-09-30T02:07:13.841Z,100031.95
2023-09-30T02:09:41.538Z,100032.80
2023-09-30T02:12:10.375Z,100031.02
2023-09-30T02:14:39.936Z,100029.56
2023-09-30T02:17:07.885Z,100026.29
2023-09-30T02:19:35.327Z,100025.25
2023-09-30T02:22:03.439Z,100021.76
2023-09-30T02:24:31.147Z,100022.40
2023-09-30T02:26:59.373Z,100021.27
2023-09-30T02:29:26.743Z,100019.63
2023-09-30T02:31:56.096Z,100018.02
2023-09-30T02:34:23.578Z,100018.39
2023-09-30T02:36:51.501Z,100017.73
2023-09-30T02:39:19.014Z,100014.23
2023-09-30T02:41:46.969Z,100014.14
2023-09-30T02:44:14.363Z,100011.07
2023-09-30T02:46:42.718Z,100007.82
2023-09-30T02:49:10.223Z,100010.60
2023-09-30T02:51:38.025Z,100010.04
2023-09-30T02:54:05.865Z,100010.70
2023-09-30T02:56:33.260Z,100010.91
2023-09-30T02:59:01.410Z,100004.80
2023-09-30T03:01:29.257Z,100007.04
2023-09-30T03:03:57.160Z,100007.66
2023-09-30T03:06:25.017Z,100009.66
2023-09-30T03:08:53.157Z,100009.70
2023-09-30T03:11:23.963Z,100007.35
2023-09-30T03:13:52.015Z,100003.52
2023-09-30T03:16:21.295Z,100003.09
2023-09-30T03:18:50.539Z,100005.17
2023-09-30T03:21:18.140Z,100000.71
2023-09-30T03:23:45.669Z,100002.89
2023-09-30T03:26:13.125Z,100000.77
2023-09-30T03:28:40.578Z,99998.45
2023-09-30T03:31:08.532Z,99995.76
2023-09-30T03:33:36.493Z,99994.69
2023-09-30T03:36:04.955Z,99994.27
2023-09-30T03:38:33.768Z,99989.23
2023-09-30T03:41:01.207Z,99989.92
2023-09-30T03:43:28.681Z,99988.67
2023-09-30T03:45:58.582Z,99985.33
2023-09-30T03:48:26.109Z,99986.84
2023-09-30T03:50:55.018Z,99987.73
2023-09-30T03:53:22.545Z,99990.45
2023-09-30T03:55:49.959Z,99987.46
2023-09-30T03:58:19.600Z,99988.86
2023-09-30T04:00:47.122Z,99989.30
2023-09-30T04:03:14.899Z,99986.79
2023-09-30T04:05:43.130Z,99988.02
2023-09-30T04:08:10.569Z,99986.04
2023-09-30T04:10:37.921Z,99985.41
2023-09-30T04:13:05.311Z,99983.36
2023-09-30T04:15:32.733Z,99985.98
2023-09-30T04:18:00.470Z,99989.67
2023-09-30T04:20:28.475Z,99990.38
2023-09-30T04:22:58.955Z,99990.23
2023-09-30T04:25:27.202Z,99991.92
2023-09-30T04:27:54.972Z,99989.48
2023-09-30T04:30:23.798Z,99992.22
2023-09-30T04:32:51.387Z,99992.78
2023-09-30T04:35:19.018Z,99995.59
2023-09-30T04:37:47.129Z,99991.02
2023-09-30T04:40:35.016Z,99985.48
2023-09-30T04:43:02.458Z,99984.69
2023-09-30T04:45:29.909Z,99985.41
2023-09-30T04:47:57.538Z,99982.55
2023-09-30T04:50:25.242Z,99986.42
2023-09-30T04:52:52.913Z,99983.23
2023-09-30T04:55:21.042Z,99984.80
2023-09-30T04:57:49.223Z,99986.77
2023-09-30T05:00:20.434Z,99984.42
2023-09-30T05:02:48.251Z,99986.34
2023-09-30T05:05:16.310Z,99987.02
2023-09-30T05:07:44.293Z,99985.80
2023-09-30T05:10:14.916Z,99986.65
2023-09-30T05:12:47.461Z,99988.37
2023-09-30T05:15:20.796Z,99984.34
2023-09-30T05:17:48.969Z,99986.19
2023-09-30T05:20:19.069Z,99987.17
2023-09-30T05:22:47.364Z,99986.18
2023-09-30T05:25:17.798Z,99989.89
2023-09-30T05:27:46.144Z,99987.59
2023-09-30T05:30:16.440Z,99987.94
2023-09-30T05:32:44.182Z,99985.04
2023-09-30T05:35:14.968Z,99988.27
2023-09-30T05:37:48.393Z,99988.95
2023-09-30T05:40:24.482Z,99989.23
2023-09-30T05:42:56.376Z,99987.04
2023-09-30T05:45:24.820Z,99989.02
2023-09-30T05:47:56.274Z,99987.17
2023-09-30T05:50:28.450Z,99982.33
2023-09-30T05:52:56.558Z,99983.44
2023-09-30T05:55:26.882Z,99985.52
2023-09-30T05:57:55.607Z,99987.18
2023-09-30T06:00:31.837Z,99987.56
2023-09-30T06:03:00.247Z,99986.88
2023-09-30T06:05:30.872Z,99990.88
2023-09-30T06:07:58.364Z,99988.58
2023-09-30T06:10:27.349Z,99984.83
2023-09-30T06:12:56.802Z,99987.16
2023-09-30T06:15:27.628Z,99988.02
2023-09-30T06:17:56.366Z,99984.70
2023-09-30T06:20:28.038Z,99981.42
2023-09-30T06:22:56.183Z,99982.55
2023-09-30T06:25:25.778Z,99978.70
2023-09-30T06:27:53.816Z,99981.60
2023-09-30T06:30:22.483Z,99976.52
2023-09-30T06:32:50.386Z,99972.55
2023-09-30T06:35:20.357Z,99975.16
2023-09-30T06:37:49.487Z,99977.20
2023-09-30T06:40:16.886Z,99973.38
2023-09-30T06:42:44.371Z,99975.09
2023-09-30T06:45:11.991Z,99976.09
2023-09-30T06:47:40.977Z,99975.46
2023-09-30T06:50:13.902Z,99976.41
2023-09-30T06:52:42.748Z,99974.86
2023-09-30T06:55:10.739Z,99969.47
2023-09-30T06:57:38.922Z,99968.07
2023-09-30T07:00:14.406Z,99968.67
2023-09-30T07:02:43.396Z,99969.54
2023-09-30T07:05:12.793Z,99969.42
2023-09-30T07:07:40.864Z,99972.99
2023-09-30T07:10:08.953Z,99968.73
2023-09-30T07:12:37.518Z,99970.91
2023-09-30T07:15:06.494Z,99970.84
2023-09-30T07:17:35.455Z,99973.49
2023-09-30T07:20:04.095Z,99977.08
2023-09-30T07:25:03.643Z,99970.93
2023-09-30T07:27:31.362Z,99973.50
2023-09-30T07:29:58.913Z,99976.71
2023-09-30T07:32:26.295Z,99978.75
2023-09-30T07:34:53.712Z,99974.60
2023-09-30T07:37:21.903Z,99971.06
2023-09-30T07:39:49.577Z,99976.19
2023-09-30T07:42:18.424Z,99974.44
2023-09-30T07:44:45.891Z,99974.70
2023-09-30T07:47:13.729Z,99972.48
2023-09-30T07:49:41.193Z,99970.27
2023-09-30T07:52:08.621Z,99969.59
2023-09-30T07:54:36.131Z,99970.45
2023-09-30T07:57:03.658Z,99967.27
2023-09-30T07:59:31.370Z,99966.13
2023-09-30T08:01:58.882Z,99962.21
2023-09-30T08:04:26.723Z,99960.92
2023-09-30T08:06:54.808Z,99960.73
2023-09-30T08:09:23.938Z,99963.72
2023-09-30T08:11:52.030Z,99960.38
2023-09-30T08:14:19.485Z,99958.66
2023-09-30T08:16:47.040Z,99957.24
2023-09-30T08:19:14.509Z,99959.95
2023-09-30T08:21:42.081Z,99960.09
2023-09-30T08:24:09.686Z,99960.52
2023-09-30T08:26:37.151Z,99961.07
2023-09-30T08:29:04.707Z,99954.74
2023-09-30T08:31:32.152Z,99956.70
2023-09-30T08:33:59.703Z,99954.79
2023-09-30T08:36:27.145Z,99956.05
2023-09-30T08:38:54.640Z,99955.17
2023-09-30T08:41:31.689Z,99952.52
2023-09-30T08:44:05.133Z,99950.73
2023-09-30T08:46:35.067Z,99949.20
2023-09-30T08:49:07.266Z,99944.98
2023-09-30T08:51:35.981Z,99941.72
2023-09-30T08:54:05.280Z,99941.65
2023-09-30T08:56:36.165Z,99939.22
2023-09-30T08:59:04.234Z,99936.81
2023-09-30T09:01:32.307Z,99937.11
2023-09-30T09:04:00.150Z,99935.45
2023-09-30T09:06:28.216Z,99932.42
2023-09-30T09:08:55.902Z,99935.57
2023-09-30T09:11:24.800Z,99933.56
2023-09-30T09:13:57.539Z,99930.48
2023-09-30T09:16:25.972Z,99931.27
2023-09-30T09:18:54.603Z,99929.88
2023-09-30T09:21:24.445Z,99930.46
2023-09-30T09:23:52.926Z,99925.27
2023-09-30T09:26:28.292Z,99923.71
2023-09-30T09:29:00.156Z,99916.30
2023-09-30T09:31:29.537Z,99917.40
2023-09-30T09:33:57.386Z,99917.36
2023-09-30T09:36:48.098Z,99918.65
2023-09-30T09:39:16.654Z,99917.40
2023-09-30T09:41:54.157Z,99915.04
2023-09-30T09:44:23.009Z,99914.45
2023-09-30T09:46:53.412Z,99915.88
2023-09-30T09:49:22.230Z,99911.27
2023-09-30T09:51:50.307Z,99913.20
2023-09-30T09:54:18.229Z,99909.37
2023-09-30T09:56:45.951Z,99907.02
2023-09-30T09:59:13.853Z,99906.83
2023-09-30T10:01:41.849Z,99902.74
2023-09-30T10:04:09.345Z,99897.95
2023-09-30T10:06:41.145Z,99896.09
2023-09-30T10:09:10.246Z,99893.58
2023-09-30T10:11:39.276Z,99890.89
2023-09-30T10:14:13.516Z,99888.08
2023-09-30T10:16:43.991Z,99883.02
2023-09-30T10:19:16.262Z,99884.85
2023-09-30T10:22:18.751Z,99878.27
2023-09-30T10:24:50.401Z,99880.61
2023-09-30T10:27:30.825Z,99877.56
2023-09-30T10:30:11.311Z,99873.23
2023-09-30T10:32:54.961Z,99867.18
2023-09-30T10:35:28.894Z,99868.48
2023-09-30T10:38:26.938Z,99869.27
2023-09-30T10:40:57.022Z,99866.94
2023-09-30T10:43:38.314Z,99862.65
2023-09-30T10:46:27.452Z,99860.56
2023-09-30T10:48:55.273Z,99859.05
2023-09-30T10:51:23.141Z,99857.92
2023-09-30T10:53:57.928Z,99853.26
2023-09-30T10:56:25.613Z,99850.24
2023-09-30T10:58:53.966Z,99850.07
2023-09-30T11:01:22.884Z,99847.67
2023-09-30T11:03:54.756Z,99845.25
2023-09-30T11:06:23.146Z,99840.33
2023-09-30T11:08:56.292Z,99843.09
2023-09-30T11:11:55.289Z,99838.58
2023-09-30T11:14:26.003Z,99829.55
2023-09-30T11:16:56.228Z,99823.81
2023-09-30T11:19:24.117Z,99823.58
2023-09-30T11:21:56.372Z,99820.27
2023-09-30T11:24:24.424Z,99821.71
2023-09-30T11:26:55.596Z,99821.88
2023-09-30T11:29:23.076Z,99817.02
2023-09-30T11:31:52.562Z,99814.72
2023-09-30T11:34:21.005Z,99808.83
2023-09-30T11:36:51.439Z,99805.64
2023-09-30T11:39:29.464Z,99807.89
2023-09-30T11:41:58.582Z,99808.98
2023-09-30T11:44:27.864Z,99807.19
2023-09-30T11:46:57.200Z,99804.12
2023-09-30T11:49:28.876Z,99801.69
2023-09-30T11:52:09.139Z,99797.42
2023-09-30T11:54:46.887Z,99797.45
2023-09-30T11:57:19.591Z,99790.95
2023-09-30T11:59:47.897Z,99789.25
2023-09-30T12:02:21.133Z,99788.47
2023-09-30T12:04:49.116Z,99784.02
2023-09-30T12:07:16.803Z,99777.96
2023-09-30T12:09:44.335Z,99773.70
2023-09-30T12:12:13.092Z,99773.87
2023-09-30T12:14:41.347Z,99772.62
2023-09-30T12:17:13.286Z,99770.73
2023-09-30T12:19:42.754Z,99767.42
2023-09-30T12:22:12.006Z,99764.95
2023-09-30T12:24:42.699Z,99764.11
2023-09-30T12:27:10.410Z,99761.36
2023-09-30T12:29:40.259Z,99758.71
2023-09-30T12:32:10.659Z,99755.67
2023-09-30T12:34:40.581Z,99755.27
2023-09-30T12:37:08.853Z,99752.79
2023-09-30T12:39:37.999Z,99750.64
2023-09-30T12:42:10.365Z,99750.84
2023-09-30T12:44:37.964Z,99748.91
2023-09-30T12:47:06.706Z,99748.88
2023-09-30T12:49:34.374Z,99745.84
2023-09-30T12:52:02.795Z,99745.89
2023-09-30T12:54:30.798Z,99746.06
2023-09-30T12:56:58.382Z,99745.16
2023-09-30T12:59:27.220Z,99741.61
2023-09-30T13:01:55.054Z,99739.18
2023-09-30T13:04:25.054Z,99736.20
2023-09-30T13:06:52.555Z,99734.36
2023-09-30T13:09:21.310Z,99735.89
2023-09-30T13:11:49.210Z,99732.56
2023-09-30T13:14:16.681Z,99725.81
2023-09-30T13:16:45.276Z,99723.17
2023-09-30T13:19:13.337Z,99718.86
2023-09-30T13:21:42.703Z,99712.99
2023-09-30T13:24:11.786Z,99705.95
2023-09-30T13:26:39.213Z,99707.17
2023-09-30T13:29:06.725Z,99704.55
2023-09-30T13:31:34.325Z,99701.40
2023-09-30T13:34:01.952Z,99702.34
2023-09-30T13:36:29.966Z,99699.16
2023-09-30T13:38:57.827Z,99696.56
2023-09-30T13:41:25.668Z,99694.57
2023-09-30T13:43:53.733Z,99693.87
2023-09-30T13:46:25.113Z,99691.92
2023-09-30T13:48:53.986Z,99687.36
2023-09-30T13:51:21.506Z,99686.64
2023-09-30T13:53:48.985Z,99685.48
2023-09-30T13:56:16.404Z,99685.02
2023-09-30T13:58:43.867Z,99683.10
2023-09-30T14:01:12.349Z,99678.25
2023-09-30T14:03:42.264Z,99674.10
2023-09-30T14:06:12.506Z,99670.86
2023-09-30T14:08:40.910Z,99670.55
2023-09-30T14:11:09.362Z,99671.06
2023-09-30T14:13:37.085Z,99670.08
2023-09-30T14:16:05.780Z,99667.96
2023-09-30T14:18:34.754Z,99666.01
2023-09-30T14:21:02.456Z,99658.39
2023-09-30T14:23:30.482Z,99657.30
2023-09-30T14:25:57.919Z,99652.86
2023-09-30T14:28:25.318Z,99652.67
2023-09-30T14:30:52.889Z,99649.98
2023-09-30T14:33:20.460Z,99650.13
2023-09-30T14:35:48.909Z,99651.13
2023-09-30T14:38:17.747Z,99652.91
2023-09-30T14:40:45.211Z,99653.19
2023-09-30T14:43:12.736Z,99651.80
2023-09-30T14:45:41.223Z,99651.17
2023-09-30T14:48:09.495Z,99649.73
2023-09-30T14:50:39.824Z,99650.48
2023-09-30T14:53:07.324Z,99649.79
2023-09-30T14:55:34.823Z,99647.16
2023-09-30T14:58:02.390Z,99645.88
2023-09-30T15:00:30.522Z,99643.27
2023-09-30T15:02:58.140Z,99638.91
2023-09-30T15:05:25.924Z,99640.82
2023-09-30T15:07:53.431Z,99639.15
2023-09-30T15:10:20.876Z,99636.80
2023-09-30T15:12:48.424Z,99634.06
2023-09-30T15:15:15.881Z,99635.34
2023-09-30T15:17:43.309Z,99633.73
2023-09-30T15:20:11.815Z,99630.95
2023-09-30T15:22:39.283Z,99632.95
2023-09-30T15:25:07.091Z,99634.81
2023-09-30T15:27:34.541Z,99635.39
2023-09-30T15:30:02.024Z,99638.95
2023-09-30T15:32:29.536Z,99638.98
2023-09-30T15:34:57.043Z,99643.15
2023-09-30T15:37:24.463Z,99643.17
2023-09-30T15:39:52.101Z,99646.30
2023-09-30T15:42:20.323Z,99647.54
2023-09-30T15:44:48.153Z,99647.05
2023-09-30T15:47:15.605Z,99647.95
2023-09-30T15:49:42.994Z,99646.52
2023-09-30T15:52:10.580Z,99648.33
2023-09-30T15:54:38.068Z,99648.50
2023-09-30T15:57:08.742Z,99649.69
2023-09-30T15:59:36.194Z,99649.19
2023-09-30T16:02:04.164Z,99648.48
2023-09-30T16:04:31.962Z,99649.85
2023-09-30T16:07:02.005Z,99649.71
2023-09-30T16:09:29.978Z,99650.96
2023-09-30T16:12:00.854Z,99652.75
2023-09-30T16:14:28.648Z,99651.48
2023-09-30T16:17:01.286Z,99651.70
2023-09-30T16:19:29.053Z,99653.49
2023-09-30T16:21:59.224Z,99652.71
2023-09-30T16:24:26.831Z,99655.22
2023-09-30T16:26:54.182Z,99658.14
2023-09-30T16:29:21.591Z,99654.89
2023-09-30T16:31:49.176Z,99652.18
2023-09-30T16:34:16.653Z,99652.02
2023-09-30T16:36:44.306Z,99652.48
2023-09-30T16:39:11.773Z,99656.16
2023-09-30T16:41:39.582Z,99653.91
2023-09-30T16:44:08.121Z,99658.47
2023-09-30T16:46:35.641Z,99659.38
2023-09-30T16:49:03.979Z,99661.51
2023-09-30T16:51:31.393Z,99663.27
2023-09-30T16:53:59.062Z,99658.14
2023-09-30T16:56:27.297Z,99660.33
2023-09-30T16:58:56.226Z,99661.31
2023-09-30T17:01:23.963Z,99659.14
2023-09-30T17:03:51.461Z,99658.46
2023-09-30T17:06:18.928Z,99655.61
2023-09-30T17:08:46.376Z,99652.76
2023-09-30T17:11:19.236Z,99654.70
2023-09-30T17:13:47.486Z,99652.08
2023-09-30T17:16:22.005Z,99653.09
2023-09-30T17:18:49.939Z,99654.76
2023-09-30T17:21:17.395Z,99654.77
2023-09-30T17:23:44.802Z,99653.45
2023-09-30T17:26:12.259Z,99651.91
2023-09-30T17:28:40.105Z,99649.42
2023-09-30T17:31:07.869Z,99649.64
2023-09-30T17:33:36.291Z,99648.57
2023-09-30T17:36:04.881Z,99645.14
2023-09-30T17:38:33.167Z,99648.77
2023-09-30T17:41:02.357Z,99643.76
2023-09-30T17:43:29.832Z,99643.55
2023-09-30T17:45:57.362Z,99638.89
2023-09-30T17:48:24.920Z,99635.73
2023-09-30T17:50:52.441Z,99630.67
2023-09-30T17:53:19.988Z,99634.59
2023-09-30T17:55:47.377Z,99632.60
2023-09-30T17:58:14.904Z,99629.73
2023-09-30T18:00:42.412Z,99629.02
2023-09-30T18:03:11.154Z,99626.29
2023-09-30T18:05:38.612Z,99628.74
2023-09-30T18:08:06.278Z,99626.22
2023-09-30T18:10:33.915Z,99627.19
2023-09-30T18:13:04.251Z,99627.46
2023-09-30T18:15:32.206Z,99631.29
2023-09-30T18:18:11.214Z,99627.77
2023-09-30T18:20:41.680Z,99625.83
2023-09-30T18:23:10.173Z,99625.85
2023-09-30T18:25:37.832Z,99624.73
2023-09-30T18:28:05.353Z,99620.81
2023-09-30T18:30:32.913Z,99622.61
2023-09-30T18:33:00.395Z,99621.41
2023-09-30T18:35:27.938Z,99616.83
2023-09-30T18:37:55.374Z,99612.80
2023-09-30T18:40:25.095Z,99616.69
2023-09-30T18:42:52.896Z,99610.98
2023-09-30T18:45:20.406Z,99611.34
2023-09-30T18:47:47.961Z,99610.16
2023-09-30T18:50:15.663Z,99610.38
2023-09-30T18:52:43.149Z,99610.84
2023-09-30T18:55:11.432Z,99612.70
2023-09-30T18:57:39.554Z,99609.34
2023-09-30T19:00:07.664Z,99613.24
2023-09-30T19:02:35.211Z,99612.02
2023-09-30T19:05:02.705Z,99610.92
2023-09-30T19:07:30.357Z,99606.46
2023-09-30T19:09:57.777Z,99604.09
2023-09-30T19:12:25.285Z,99601.91
2023-09-30T19:14:54.127Z,99603.23
2023-09-30T19:17:21.608Z,99606.70
2023-09-30T19:19:49.566Z,99609.13
2023-09-30T19:22:17.051Z,99607.98
2023-09-30T19:24:45.520Z,99609.63
2023-09-30T19:27:12.996Z,99609.20
2023-09-30T19:29:40.380Z,99611.29
2023-09-30T19:32:08.565Z,99609.40
2023-09-30T19:34:36.011Z,99609.85
2023-09-30T19:37:03.478Z,99611.02
2023-09-30T19:39:31.055Z,99612.75
2023-09-30T19:41:59.253Z,99611.16
2023-09-30T19:44:26.653Z,99609.98
2023-09-30T19:46:54.280Z,99608.48
2023-09-30T19:49:22.565Z,99604.33
2023-09-30T19:51:50.384Z,99607.58
2023-09-30T19:54:18.810Z,99608.13
2023-09-30T19:56:47.551Z,99608.39
2023-09-30T19:59:14.974Z,99604.88
2023-09-30T20:01:42.682Z,99604.59
2023-09-30T20:04:11.972Z,99603.26
2023-09-30T20:06:39.599Z,99604.15
2023-09-30T20:09:08.877Z,99601.91
2023-09-30T20:11:36.826Z,99603.54
2023-09-30T20:14:04.294Z,99605.35
2023-09-30T20:16:31.950Z,99604.35
2023-09-30T20:18:59.759Z,99607.81
2023-09-30T20:21:27.594Z,99613.14
2023-09-30T20:23:55.032Z,99609.32
2023-09-30T20:26:27.139Z,99608.52
2023-09-30T20:28:55.585Z,99609.65
2023-09-30T20:31:23.254Z,99607.52
2023-09-30T20:33:50.937Z,99601.98
2023-09-30T20:36:18.424Z,99600.54
2023-09-30T20:38:45.984Z,99600.85
2023-09-30T20:41:13.577Z,99596.73
2023-09-30T20:43:41.787Z,99597.10
2023-09-30T20:46:09.493Z,99597.67
2023-09-30T20:48:37.231Z,99596.63
2023-09-30T20:51:05.367Z,99599.15
2023-09-30T20:53:35.871Z,99597.33
2023-09-30T20:56:03.561Z,99594.32
2023-09-30T20:58:31.049Z,99593.65
2023-09-30T21:00:58.942Z,99595.70
2023-09-30T21:03:26.579Z,99597.44
2023-09-30T21:05:54.722Z,99597.92
2023-09-30T21:08:23.068Z,99601.57
2023-09-30T21:10:50.856Z,99596.59
2023-09-30T21:13:18.303Z,99598.64
2023-09-30T21:15:45.820Z,99598.55
2023-09-30T21:18:13.253Z,99597.41
2023-09-30T21:20:40.940Z,99600.42
2023-09-30T21:23:08.383Z,99597.55
2023-09-30T21:25:36.495Z,99599.10
2023-09-30T21:28:04.614Z,99594.48
2023-09-30T21:30:32.131Z,99592.94
2023-09-30T21:32:59.569Z,99588.61
2023-09-30T21:35:27.104Z,99587.77
2023-09-30T21:37:54.496Z,99583.54
2023-09-30T21:40:21.952Z,99583.90
2023-09-30T21:42:49.471Z,99583.17
2023-09-30T21:45:16.988Z,99578.85
2023-09-30T21:47:44.749Z,99579.86
2023-09-30T21:50:12.752Z,99582.53
2023-09-30T21:52:40.185Z,99584.61
2023-09-30T21:55:08.686Z,99583.77
2023-09-30T21:57:36.163Z,99586.98
2023-09-30T22:00:14.906Z,99583.27
2023-09-30T22:02:42.643Z,99581.84
2023-09-30T22:05:11.341Z,99582.55
2023-09-30T22:07:40.488Z,99580.17
2023-09-30T22:10:09.800Z,99583.64
2023-09-30T22:12:38.105Z,99582.02
2023-09-30T22:15:06.875Z,99584.04
2023-09-30T22:17:34.390Z,99582.88
2023-09-30T22:20:02.049Z,99584.33
2023-09-30T22:22:33.167Z,99584.20
2023-09-30T22:25:00.992Z,99584.83
2023-09-30T22:27:28.534Z,99585.95
2023-09-30T22:29:55.991Z,99588.05
2023-09-30T22:32:23.533Z,99586.67
2023-09-30T22:34:50.964Z,99583.90
2023-09-30T22:37:19.146Z,99585.00
2023-09-30T22:39:47.576Z,99584.84
2023-09-30T22:42:14.971Z,99583.27
2023-09-30T22:44:42.345Z,99579.48
2023-09-30T22:47:09.844Z,99573.05
2023-09-30T22:49:37.343Z,99575.77
2023-09-30T22:52:05.046Z,99571.66
2023-09-30T22:54:32.422Z,99573.39
2023-09-30T22:56:59.865Z,99571.95
2023-09-30T22:59:27.246Z,99568.56
2023-09-30T23:01:55.619Z,99561.97
2023-09-30T23:04:23.056Z,99567.10
2023-09-30T23:06:50.557Z,99557.81
2023-09-30T23:09:22.068Z,99559.69
2023-09-30T23:11:52.337Z,99559.11
2023-09-30T23:14:19.958Z,99556.86
2023-09-30T23:16:48.376Z,99557.89
2023-09-30T23:19:17.103Z,99553.84
2023-09-30T23:21:44.738Z,99553.31
2023-09-30T23:24:13.005Z,99546.25
2023-09-30T23:26:40.539Z,99545.91
2023-09-30T23:29:09.541Z,99545.52
2023-09-30T23:31:42.078Z,99541.13
2023-09-30T23:34:10.676Z,99539.30
2023-09-30T23:36:40.343Z,99535.77
2023-09-30T23:39:13.802Z,99537.89
2023-09-30T23:41:50.117Z,99533.50
2023-09-30T23:44:18.324Z,99531.33
2023-09-30T23:46:47.047Z,99532.62
2023-09-30T23:51:45.365Z,99531.77
2023-09-30T23:54:14.101Z,99532.64
2023-09-30T23:56:41.739Z,99532.80
2023-09-30T23:59:10.760Z,99527.02
